createdAt,value
2023-04-08T00:04:59.078Z,53.91
2023-04-08T00:10:02.044Z,55.33
2023-04-08T00:15:05.315Z,56.90
2023-04-08T00:20:08.633Z,58.65
2023-04-08T00:25:11.332Z,68.66
2023-04-08T00:30:15.438Z,64.03
2023-04-08T00:35:18.187Z,55.14
2023-04-08T00:40:21.138Z,55.23
2023-04-08T00:45:23.824Z,58.07
2023-04-08T00:50:26.489Z,59.54
2023-04-08T00:55:29.208Z,68.71
2023-04-08T01:00:32.902Z,64.97
2023-04-08T01:05:47.364Z,55.05
2023-04-08T01:10:54.162Z,55.23
2023-04-08T01:15:57.277Z,57.55
2023-04-08T01:21:00.524Z,59.71
2023-04-08T01:26:03.271Z,68.99
2023-04-08T01:31:07.276Z,63.56
2023-04-08T01:36:11.107Z,54.67
2023-04-08T01:41:13.924Z,54.04
2023-04-08T01:46:17.157Z,56.52
2023-04-08T01:51:21.250Z,58.80
2023-04-08T01:56:28.440Z,68.57
2023-04-08T02:01:33.142Z,64.44
2023-04-08T02:06:38.022Z,54.77
2023-04-08T02:11:40.726Z,55.15
2023-04-08T02:16:56.499Z,57.13
2023-04-08T02:22:25.647Z,58.37
2023-04-08T02:27:29.677Z,59.53
2023-04-08T02:32:33.340Z,70.73
2023-04-08T02:37:36.198Z,63.23
2023-04-08T02:42:38.950Z,54.06
2023-04-08T02:47:41.605Z,55.85
2023-04-08T02:52:45.005Z,57.35
2023-04-08T02:57:48.358Z,59.86
2023-04-08T03:02:51.241Z,69.36
2023-04-08T03:07:54.158Z,63.31
2023-04-08T03:12:56.800Z,53.80
2023-04-08T03:18:00.299Z,54.83
2023-04-08T03:23:03.113Z,56.68
2023-04-08T03:28:05.819Z,59.51
2023-04-08T03:33:08.919Z,69.03
2023-04-08T03:38:11.750Z,63.97
2023-04-08T03:43:14.863Z,54.21
2023-04-08T03:48:17.509Z,55.32
2023-04-08T03:53:20.349Z,57.49
2023-04-08T03:58:23.152Z,59.01
2023-04-08T04:03:25.945Z,59.81
2023-04-08T04:08:28.686Z,70.40
2023-04-08T04:13:31.309Z,63.30
2023-04-08T04:18:34.056Z,53.78
2023-04-08T04:23:36.853Z,54.01
2023-04-08T04:28:39.535Z,56.35
2023-04-08T04:33:42.195Z,57.69
2023-04-08T04:38:45.398Z,59.22
2023-04-08T04:43:48.065Z,69.62
2023-04-08T04:48:51.653Z,64.22
2023-04-08T04:53:54.402Z,54.71
2023-04-08T04:58:57.104Z,55.85
2023-04-08T05:03:59.791Z,57.99
2023-04-08T05:09:02.785Z,59.26
2023-04-08T05:14:05.664Z,69.38
2023-04-08T05:19:08.368Z,64.71
2023-04-08T05:24:11.005Z,55.08
2023-04-08T05:29:13.655Z,53.94
2023-04-08T05:34:19.448Z,56.37
2023-04-08T05:39:22.149Z,60.00
2023-04-08T05:44:24.965Z,68.62
2023-04-08T05:49:27.583Z,62.18
2023-04-08T05:54:30.409Z,53.67
2023-04-08T05:59:33.077Z,55.68
2023-04-08T06:04:35.817Z,60.92
2023-04-08T06:09:38.494Z,68.58
2023-04-08T06:14:41.139Z,59.39
2023-04-08T06:19:43.832Z,52.25
2023-04-08T06:24:47.655Z,54.51
2023-04-08T06:29:50.918Z,59.60
2023-04-08T06:34:53.568Z,65.73
2023-04-08T06:39:56.500Z,56.54
2023-04-08T06:44:59.362Z,53.09
2023-04-08T06:50:02.227Z,54.22
2023-04-08T06:55:05.267Z,58.84
2023-04-08T07:00:08.874Z,63.06
2023-04-08T07:05:11.538Z,55.52
2023-04-08T07:10:14.253Z,54.61
2023-04-08T07:15:16.962Z,57.53
2023-04-08T07:20:19.611Z,63.12
2023-04-08T07:25:22.309Z,59.95
2023-04-08T07:30:25.051Z,52.00
2023-04-08T07:35:27.944Z,54.91
2023-04-08T07:40:31.043Z,55.38
2023-04-08T07:45:33.775Z,59.77
2023-04-08T07:51:08.815Z,63.28
2023-04-08T07:56:00.606Z,57.77
2023-04-08T08:01:03.661Z,51.59
2023-04-08T08:06:06.418Z,56.59
2023-04-08T08:11:09.193Z,57.62
2023-04-08T08:16:12.345Z,59.66
2023-04-08T08:21:16.003Z,61.41
2023-04-08T08:26:18.747Z,62.14
2023-04-08T08:31:21.500Z,54.66
2023-04-08T08:36:24.435Z,53.87
2023-04-08T08:41:27.081Z,58.57
2023-04-08T08:46:29.907Z,59.19
2023-04-08T08:51:33.133Z,60.19
2023-04-08T08:56:35.873Z,60.53
2023-04-08T09:01:41.466Z,59.57
2023-04-08T09:07:04.622Z,60.52
2023-04-08T09:12:07.291Z,60.26
2023-04-08T09:17:10.673Z,59.93
2023-04-08T09:22:13.379Z,59.84
2023-04-08T09:27:16.023Z,59.30
2023-04-08T09:32:18.707Z,58.89
2023-04-08T09:37:21.411Z,58.15
2023-04-08T09:42:24.120Z,57.91
2023-04-08T09:47:28.909Z,58.24
2023-04-08T09:52:43.866Z,58.16
2023-04-08T09:57:58.179Z,57.65
2023-04-08T10:03:26.449Z,57.34
2023-04-08T10:08:31.595Z,56.60
2023-04-08T10:13:34.811Z,55.95
2023-04-08T10:18:38.305Z,55.32
2023-04-08T10:24:01.524Z,55.29
2023-04-08T10:29:19.445Z,53.98
2023-04-08T10:34:27.603Z,53.25
2023-04-08T10:39:30.857Z,51.76
2023-04-08T10:44:33.520Z,51.29
2023-04-08T10:49:37.088Z,51.06
2023-04-08T10:54:46.838Z,51.24
2023-04-08T10:59:49.495Z,51.41
2023-04-08T11:04:54.364Z,50.57
2023-04-08T11:09:57.149Z,49.74
2023-04-08T11:14:59.901Z,49.60
2023-04-08T11:20:06.268Z,48.30
2023-04-08T11:25:10.308Z,48.53
2023-04-08T11:30:13.339Z,47.61
2023-04-08T11:35:17.013Z,47.47
2023-04-08T11:40:21.997Z,47.59
2023-04-08T11:45:26.194Z,45.77
2023-04-08T11:50:30.081Z,44.52
2023-04-08T11:55:34.048Z,43.43
2023-04-08T12:00:37.444Z,43.01
2023-04-08T12:05:40.739Z,42.16
2023-04-08T12:10:43.445Z,41.51
2023-04-08T12:15:46.139Z,42.03
2023-04-08T12:20:48.798Z,40.81
2023-04-08T12:25:51.940Z,40.05
2023-04-08T12:30:54.602Z,39.71
2023-04-08T12:36:00.847Z,39.03
2023-04-08T12:41:03.654Z,37.14
2023-04-08T12:46:06.452Z,37.19
2023-04-08T12:51:10.428Z,37.58
2023-04-08T12:56:13.359Z,37.46
2023-04-08T13:01:16.187Z,35.79
2023-04-08T13:06:18.854Z,35.23
2023-04-08T13:11:21.516Z,34.56
2023-04-08T13:16:24.250Z,33.09
2023-04-08T13:21:27.414Z,33.19
2023-04-08T13:26:30.086Z,32.57
2023-04-08T13:31:32.908Z,31.71
2023-04-08T13:36:35.930Z,30.70
2023-04-08T13:41:38.712Z,30.15
2023-04-08T13:46:42.347Z,29.21
2023-04-08T13:51:45.039Z,29.19
2023-04-08T13:56:47.731Z,29.29
2023-04-08T14:01:54.181Z,28.88
2023-04-08T14:06:58.161Z,28.93
2023-04-08T14:12:00.911Z,29.81
2023-04-08T14:17:04.301Z,30.11
2023-04-08T14:22:07.245Z,29.83
2023-04-08T14:27:10.017Z,29.11
2023-04-08T14:32:13.258Z,29.30
2023-04-08T14:37:17.840Z,28.29
2023-04-08T14:42:21.013Z,28.38
2023-04-08T14:47:24.038Z,28.06
2023-04-08T14:52:26.734Z,26.90
2023-04-08T14:57:29.367Z,25.32
2023-04-08T15:02:32.162Z,24.63
2023-04-08T15:07:35.047Z,23.47
2023-04-08T15:12:37.915Z,23.53
2023-04-08T15:17:40.740Z,22.58
2023-04-08T15:22:43.383Z,22.01
2023-04-08T15:27:46.659Z,22.12
2023-04-08T15:32:49.367Z,21.80
2023-04-08T15:37:52.056Z,23.67
2023-04-08T15:42:54.899Z,24.13
2023-04-08T15:47:57.702Z,23.73
2023-04-08T15:53:00.429Z,23.53
2023-04-08T15:58:03.098Z,23.05
2023-04-08T16:03:08.437Z,23.10
2023-04-08T16:08:11.669Z,23.03
2023-04-08T16:13:14.362Z,23.29
2023-04-08T16:18:17.241Z,23.33
2023-04-08T16:23:20.258Z,23.26
2023-04-08T16:28:22.929Z,24.98
2023-04-08T16:33:29.915Z,26.54
2023-04-08T16:38:33.104Z,27.07
2023-04-08T16:43:37.156Z,28.51
2023-04-08T16:48:41.170Z,29.74
2023-04-08T16:53:43.801Z,30.42
2023-04-08T16:58:46.453Z,31.35
2023-04-08T17:03:50.220Z,31.98
2023-04-08T17:08:53.276Z,33.17
2023-04-08T17:13:56.144Z,33.78
2023-04-08T17:18:58.808Z,34.51
2023-04-08T17:24:01.644Z,35.13
2023-04-08T17:29:04.334Z,35.64
2023-04-08T17:34:07.864Z,36.29
2023-04-08T17:39:10.985Z,36.85
2023-04-08T17:44:13.638Z,37.19
2023-04-08T17:49:16.715Z,37.65
2023-04-08T17:54:19.393Z,38.16
2023-04-08T17:59:22.044Z,38.62
2023-04-08T18:04:24.743Z,39.30
2023-04-08T18:09:27.454Z,40.03
2023-04-08T18:14:30.189Z,40.65
2023-04-08T18:19:32.945Z,41.14
2023-04-08T18:24:35.771Z,41.85
2023-04-08T18:29:38.714Z,42.61
2023-04-08T18:34:41.690Z,43.14
2023-04-08T18:39:44.370Z,44.20
2023-04-08T18:44:47.112Z,45.26
2023-04-08T18:49:49.765Z,45.95
2023-04-08T18:54:52.679Z,46.68
2023-04-08T18:59:55.397Z,47.48
2023-04-08T19:04:58.449Z,48.19
2023-04-08T19:10:01.224Z,48.88
2023-04-08T19:15:04.665Z,49.13
2023-04-08T19:20:08.497Z,49.73
2023-04-08T19:25:11.261Z,50.36
2023-04-08T19:30:13.980Z,50.52
2023-04-08T19:35:16.698Z,50.93
2023-04-08T19:40:19.832Z,51.31
2023-04-08T19:45:22.539Z,51.67
2023-04-08T19:50:25.531Z,51.89
2023-04-08T19:55:28.283Z,52.16
2023-04-08T20:00:31.281Z,52.49
2023-04-08T20:05:34.044Z,52.62
2023-04-08T20:10:36.827Z,53.00
2023-04-08T20:15:39.581Z,53.44
2023-04-08T20:20:42.983Z,53.53
2023-04-08T20:25:45.732Z,53.80
2023-04-08T20:30:48.387Z,54.12
2023-04-08T20:35:53.347Z,54.30
2023-04-08T20:40:56.160Z,54.42
2023-04-08T20:45:58.926Z,54.65
2023-04-08T20:51:01.632Z,54.98
2023-04-08T20:56:04.735Z,55.03
2023-04-08T21:01:07.853Z,54.99
2023-04-08T21:06:20.870Z,55.14
2023-04-08T21:11:23.654Z,55.19
2023-04-08T21:16:26.413Z,55.49
2023-04-08T21:21:29.687Z,55.67
2023-04-08T21:26:32.464Z,55.73
2023-04-08T21:31:35.445Z,56.00
2023-04-08T21:36:38.148Z,56.21
2023-04-08T21:41:40.839Z,56.61
2023-04-08T21:46:43.542Z,56.53
2023-04-08T21:51:46.359Z,56.73
2023-04-08T21:56:49.053Z,56.83
2023-04-08T22:01:51.942Z,57.24
2023-04-08T22:06:55.113Z,57.66
2023-04-08T22:11:57.910Z,57.96
2023-04-08T22:17:00.649Z,57.91
2023-04-08T22:22:03.426Z,58.37
2023-04-08T22:27:06.978Z,58.66
2023-04-08T22:32:09.650Z,58.63
2023-04-08T22:37:12.372Z,59.26
2023-04-08T22:42:15.050Z,59.14
2023-04-08T22:47:18.262Z,59.51
2023-04-08T22:52:21.143Z,59.64
2023-04-08T22:57:23.817Z,59.67
2023-04-08T23:02:26.524Z,59.85
2023-04-08T23:07:29.305Z,59.81
2023-04-08T23:12:32.028Z,60.07
2023-04-08T23:17:34.768Z,60.59
2023-04-08T23:22:37.479Z,60.66
2023-04-08T23:27:40.304Z,70.12
2023-04-08T23:32:43.021Z,64.95
2023-04-08T23:37:46.353Z,53.23
2023-04-08T23:42:49.014Z,52.31
2023-04-08T23:47:51.815Z,53.98
2023-04-08T23:52:54.467Z,54.72
2023-04-08T23:57:57.134Z,56.24
